createdAt,value
2023-10-17T00:02:13.126Z,6.20
2023-10-17T00:04:43.868Z,6.20
2023-10-17T00:07:11.015Z,6.20
2023-10-17T00:09:38.383Z,6.20
2023-10-17T00:12:14.817Z,6.10
2023-10-17T00:14:54.696Z,6.10
2023-10-17T00:17:21.477Z,6.10
2023-10-17T00:19:50.995Z,6.10
2023-10-17T00:22:19.503Z,6.10
2023-10-17T00:24:48.571Z,6.00
2023-10-17T00:27:15.610Z,6.00
2023-10-17T00:29:43.094Z,6.00
2023-10-17T00:32:10.555Z,6.00
2023-10-17T00:34:38.244Z,6.00
2023-10-17T00:37:12.727Z,6.00
2023-10-17T00:39:39.996Z,6.00
2023-10-17T00:42:08.184Z,6.00
2023-10-17T00:44:39.167Z,6.00
2023-10-17T00:47:09.913Z,6.00
2023-10-17T00:49:43.419Z,6.00
2023-10-17T00:52:20.110Z,6.00
2023-10-17T00:54:47.367Z,6.00
2023-10-17T00:57:19.113Z,5.90
2023-10-17T00:59:51.778Z,5.90
2023-10-17T01:02:24.525Z,5.90
2023-10-17T01:05:00.794Z,5.90
2023-10-17T01:07:31.419Z,5.90
2023-10-17T01:10:14.866Z,5.90
2023-10-17T01:12:50.294Z,5.90
2023-10-17T01:15:21.704Z,5.80
2023-10-17T01:17:49.292Z,5.80
2023-10-17T01:20:22.481Z,5.80
2023-10-17T01:22:49.249Z,5.80
2023-10-17T01:25:26.272Z,5.80
2023-10-17T01:27:53.396Z,5.80
2023-10-17T01:30:20.546Z,5.80
2023-10-17T01:32:49.645Z,5.80
2023-10-17T01:35:22.422Z,5.80
2023-10-17T01:37:49.736Z,5.90
2023-10-17T01:40:28.922Z,5.90
2023-10-17T01:42:58.548Z,5.80
2023-10-17T01:45:27.243Z,5.80
2023-10-17T01:47:54.669Z,5.80
2023-10-17T01:50:25.216Z,5.80
2023-10-17T01:52:55.220Z,5.80
2023-10-17T01:55:29.751Z,5.80
2023-10-17T01:58:00.976Z,5.80
2023-10-17T02:00:35.075Z,5.80
2023-10-17T02:03:04.528Z,5.80
2023-10-17T02:05:31.956Z,5.80
2023-10-17T02:07:59.806Z,5.80
2023-10-17T02:10:29.804Z,5.80
2023-10-17T02:12:56.434Z,5.80
2023-10-17T02:15:26.514Z,5.80
2023-10-17T02:17:55.017Z,5.80
2023-10-17T02:20:37.804Z,5.80
2023-10-17T02:23:20.351Z,5.80
2023-10-17T02:25:47.876Z,5.80
2023-10-17T02:28:14.507Z,5.70
2023-10-17T02:30:41.953Z,5.70
2023-10-17T02:33:18.020Z,5.70
2023-10-17T02:36:10.292Z,5.70
2023-10-17T02:38:37.407Z,5.70
2023-10-17T02:41:07.694Z,5.70
2023-10-17T02:43:38.821Z,5.80
2023-10-17T02:46:05.943Z,5.70
2023-10-17T02:48:39.451Z,5.70
2023-10-17T02:51:25.409Z,5.70
2023-10-17T02:53:53.176Z,5.70
2023-10-17T02:56:21.076Z,5.70
2023-10-17T02:59:06.394Z,5.70
2023-10-17T03:01:34.647Z,5.70
2023-10-17T03:04:11.026Z,5.70
2023-10-17T03:06:39.335Z,5.80
2023-10-17T03:09:24.887Z,5.70
2023-10-17T03:12:09.196Z,5.80
2023-10-17T03:14:41.006Z,5.70
2023-10-17T03:17:08.937Z,5.80
2023-10-17T03:19:36.493Z,5.80
2023-10-17T03:22:25.904Z,5.80
2023-10-17T03:25:01.821Z,5.70
2023-10-17T03:27:39.438Z,5.70
2023-10-17T03:30:12.211Z,5.70
2023-10-17T03:33:06.007Z,5.70
2023-10-17T03:35:36.581Z,5.60
2023-10-17T03:38:04.709Z,5.70
2023-10-17T03:40:35.436Z,5.70
2023-10-17T03:43:13.316Z,5.70
2023-10-17T03:45:59.174Z,5.80
2023-10-17T03:48:30.671Z,5.70
2023-10-17T03:51:09.549Z,5.70
2023-10-17T03:53:49.322Z,5.70
2023-10-17T03:56:25.663Z,5.70
2023-10-17T03:59:17.961Z,5.70
2023-10-17T04:01:50.696Z,5.70
2023-10-17T04:04:27.485Z,5.70
2023-10-17T04:06:57.338Z,5.70
2023-10-17T04:09:28.437Z,5.70
2023-10-17T04:11:59.766Z,5.70
2023-10-17T04:14:39.652Z,5.70
2023-10-17T04:17:08.414Z,5.70
2023-10-17T04:19:41.166Z,5.70
2023-10-17T04:22:20.636Z,5.70
2023-10-17T04:24:50.929Z,5.70
2023-10-17T04:27:18.068Z,5.70
2023-10-17T04:29:51.302Z,5.60
2023-10-17T04:32:21.713Z,5.60
2023-10-17T04:34:49.982Z,5.60
2023-10-17T04:37:32.377Z,5.60
2023-10-17T04:40:19.961Z,5.60
2023-10-17T04:42:52.720Z,5.60
2023-10-17T04:45:25.619Z,5.60
2023-10-17T04:48:12.002Z,5.50
2023-10-17T04:50:46.519Z,5.50
2023-10-17T04:53:42.795Z,5.50
2023-10-17T04:56:10.050Z,5.60
2023-10-17T04:58:48.630Z,5.60
2023-10-17T05:01:36.715Z,5.60
2023-10-17T05:04:19.569Z,5.60
2023-10-17T05:06:59.682Z,5.60
2023-10-17T05:09:26.674Z,5.60
2023-10-17T05:12:12.757Z,5.60
2023-10-17T05:14:57.814Z,5.60
2023-10-17T05:17:43.783Z,5.70
2023-10-17T05:20:29.234Z,5.70
2023-10-17T05:23:15.226Z,5.70
2023-10-17T05:26:00.703Z,5.70
2023-10-17T05:28:54.667Z,5.70
2023-10-17T05:31:43.734Z,5.70
2023-10-17T05:34:29.778Z,5.70
2023-10-17T05:37:15.549Z,5.70
2023-10-17T05:40:00.660Z,5.70
2023-10-17T05:42:46.553Z,5.70
2023-10-17T05:45:31.796Z,5.70
2023-10-17T05:48:17.678Z,5.70
2023-10-17T05:51:03.101Z,5.70
2023-10-17T05:53:49.105Z,5.80
2023-10-17T05:56:34.578Z,5.80
2023-10-17T05:59:20.702Z,5.80
2023-10-17T06:02:05.977Z,5.90
2023-10-17T06:04:52.400Z,5.90
2023-10-17T06:07:38.367Z,5.80
2023-10-17T06:10:23.460Z,5.90
2023-10-17T06:13:09.482Z,5.80
2023-10-17T06:15:55.692Z,5.80
2023-10-17T06:18:28.397Z,5.80
2023-10-17T06:21:04.876Z,5.80
2023-10-17T06:23:50.557Z,5.80
2023-10-17T06:26:39.547Z,5.80
2023-10-17T06:29:22.161Z,5.80
2023-10-17T06:31:49.698Z,5.90
2023-10-17T06:34:17.010Z,5.90
2023-10-17T06:36:44.758Z,5.90
2023-10-17T06:39:19.506Z,5.90
2023-10-17T06:41:46.781Z,5.90
2023-10-17T06:44:23.518Z,6.00
2023-10-17T06:46:56.505Z,6.00
2023-10-17T06:49:32.866Z,6.00
2023-10-17T06:52:20.276Z,6.10
2023-10-17T06:54:53.796Z,6.10
2023-10-17T06:57:20.540Z,6.20
2023-10-17T06:59:51.948Z,6.20
2023-10-17T07:02:35.891Z,6.20
2023-10-17T07:05:03.364Z,6.20
2023-10-17T07:07:40.330Z,6.40
2023-10-17T07:10:30.317Z,6.40
2023-10-17T07:13:18.325Z,6.50
2023-10-17T07:15:45.863Z,6.50
2023-10-17T07:18:31.275Z,6.60
2023-10-17T07:21:31.450Z,6.60
2023-10-17T07:24:08.062Z,6.60
2023-10-17T07:26:35.491Z,6.70
2023-10-17T07:29:06.322Z,6.70
2023-10-17T07:31:35.001Z,6.80
2023-10-17T07:34:10.847Z,6.90
2023-10-17T07:36:45.339Z,6.90
2023-10-17T07:39:35.444Z,7.00
2023-10-17T07:42:02.770Z,7.10
2023-10-17T07:44:30.864Z,7.20
2023-10-17T07:47:21.184Z,7.30
2023-10-17T07:49:51.094Z,7.30
2023-10-17T07:52:18.897Z,7.40
2023-10-17T07:54:59.069Z,7.50
2023-10-17T07:57:26.866Z,7.40
2023-10-17T07:59:53.633Z,7.50
2023-10-17T08:02:22.040Z,7.50
2023-10-17T08:04:49.605Z,7.70
2023-10-17T08:07:17.602Z,7.70
2023-10-17T08:09:52.028Z,7.80
2023-10-17T08:12:23.795Z,7.80
2023-10-17T08:15:13.909Z,7.90
2023-10-17T08:17:44.616Z,8.00
2023-10-17T08:20:14.298Z,8.10
2023-10-17T08:22:57.254Z,8.10
2023-10-17T08:25:31.399Z,8.20
2023-10-17T08:27:58.980Z,8.60
2023-10-17T08:30:42.242Z,9.30
2023-10-17T08:33:13.498Z,9.60
2023-10-17T08:35:40.731Z,9.60
2023-10-17T08:38:08.882Z,9.40
2023-10-17T08:40:38.536Z,9.10
2023-10-17T08:43:07.927Z,8.80
2023-10-17T08:45:38.396Z,8.60
2023-10-17T08:48:08.154Z,8.60
2023-10-17T08:50:38.956Z,8.60
2023-10-17T08:53:21.942Z,8.80
2023-10-17T08:55:52.727Z,9.30
2023-10-17T08:58:26.564Z,9.80
2023-10-17T09:00:56.827Z,10.20
2023-10-17T09:03:25.365Z,10.60
2023-10-17T09:06:11.136Z,10.60
2023-10-17T09:08:57.186Z,10.40
2023-10-17T09:11:42.600Z,10.20
2023-10-17T09:14:27.989Z,10.00
2023-10-17T09:17:04.231Z,10.00
2023-10-17T09:19:40.118Z,9.90
2023-10-17T09:22:08.618Z,10.00
2023-10-17T09:24:39.062Z,10.10
2023-10-17T09:27:15.495Z,10.20
2023-10-17T09:30:00.702Z,10.30
2023-10-17T09:32:38.258Z,10.30
2023-10-17T09:35:12.985Z,10.40
2023-10-17T09:37:42.468Z,10.50
2023-10-17T09:40:13.702Z,10.60
2023-10-17T09:42:41.717Z,10.70
2023-10-17T09:45:24.489Z,10.80
2023-10-17T09:48:02.425Z,10.90
2023-10-17T09:50:29.620Z,11.00
2023-10-17T09:53:00.362Z,11.00
2023-10-17T09:55:27.400Z,11.10
2023-10-17T09:58:00.294Z,11.20
2023-10-17T10:00:52.716Z,11.30
2023-10-17T10:03:21.167Z,11.40
2023-10-17T10:05:48.532Z,11.60
2023-10-17T10:08:28.328Z,11.70
2023-10-17T10:10:57.159Z,11.90
2023-10-17T10:13:25.877Z,12.00
2023-10-17T10:16:10.473Z,12.10
2023-10-17T10:18:37.344Z,12.20
2023-10-17T10:21:04.998Z,12.40
2023-10-17T10:23:45.909Z,12.40
2023-10-17T10:26:15.891Z,12.60
2023-10-17T10:28:42.566Z,12.70
2023-10-17T10:31:22.117Z,12.70
2023-10-17T10:33:49.346Z,12.80
2023-10-17T10:36:26.175Z,12.70
2023-10-17T10:38:55.123Z,12.90
2023-10-17T10:41:24.106Z,12.80
2023-10-17T10:43:58.549Z,12.90
2023-10-17T10:46:26.505Z,12.90
2023-10-17T10:48:54.779Z,12.90
2023-10-17T10:51:28.913Z,12.90
2023-10-17T10:53:57.148Z,13.00
2023-10-17T10:56:28.413Z,13.00
2023-10-17T10:58:58.489Z,13.00
2023-10-17T11:01:29.598Z,13.10
2023-10-17T11:03:58.688Z,13.20
2023-10-17T11:06:28.662Z,13.20
2023-10-17T11:08:56.503Z,13.30
2023-10-17T11:11:24.188Z,13.30
2023-10-17T11:13:51.826Z,13.20
2023-10-17T11:16:21.046Z,13.20
2023-10-17T11:18:48.350Z,13.10
2023-10-17T11:21:18.770Z,13.10
2023-10-17T11:23:47.315Z,13.20
2023-10-17T11:26:27.590Z,13.50
2023-10-17T11:28:56.357Z,13.60
2023-10-17T11:31:24.212Z,13.80
2023-10-17T11:33:57.264Z,13.90
2023-10-17T11:36:25.353Z,14.10
2023-10-17T11:38:55.932Z,14.20
2023-10-17T11:41:29.891Z,14.40
2023-10-17T11:43:56.810Z,14.50
2023-10-17T11:46:31.262Z,14.60
2023-10-17T11:49:27.852Z,14.40
2023-10-17T11:52:01.191Z,14.50
2023-10-17T11:57:14.907Z,14.80
2023-10-17T11:59:56.389Z,14.90
2023-10-17T12:02:24.159Z,14.70
2023-10-17T12:04:50.824Z,14.70
2023-10-17T12:07:21.325Z,14.60
2023-10-17T12:09:48.123Z,14.60
2023-10-17T12:12:19.963Z,14.50
2023-10-17T12:14:49.015Z,14.30
2023-10-17T12:17:20.865Z,14.10
2023-10-17T12:19:48.116Z,13.90
2023-10-17T12:22:15.418Z,13.80
2023-10-17T12:24:44.269Z,13.60
2023-10-17T12:27:13.636Z,13.60
2023-10-17T12:29:41.684Z,13.70
2023-10-17T12:32:21.386Z,13.70
2023-10-17T12:34:51.099Z,13.80
2023-10-17T12:37:20.495Z,13.80
2023-10-17T12:39:48.913Z,13.90
2023-10-17T12:42:16.535Z,13.90
2023-10-17T12:44:43.893Z,13.90
2023-10-17T12:47:10.751Z,13.90
2023-10-17T12:49:39.497Z,14.00
2023-10-17T12:52:06.304Z,14.00
2023-10-17T12:54:33.989Z,14.10
2023-10-17T12:57:01.017Z,14.00
2023-10-17T12:59:28.310Z,14.00
2023-10-17T13:01:55.992Z,14.00
2023-10-17T13:04:25.198Z,14.10
2023-10-17T13:06:54.681Z,14.00
2023-10-17T13:09:24.239Z,14.00
2023-10-17T13:11:51.153Z,14.00
2023-10-17T13:14:19.021Z,14.00
2023-10-17T13:16:46.824Z,14.00
2023-10-17T13:19:17.558Z,14.10
2023-10-17T13:21:46.603Z,14.10
2023-10-17T13:25:20.633Z,14.10
2023-10-17T13:27:47.765Z,14.10
2023-10-17T13:30:15.257Z,14.10
2023-10-17T13:32:42.731Z,14.10
2023-10-17T13:35:09.957Z,14.10
2023-10-17T13:37:52.221Z,14.10
2023-10-17T13:40:24.197Z,14.10
2023-10-17T13:42:54.604Z,14.10
2023-10-17T13:45:23.297Z,14.10
2023-10-17T13:47:58.957Z,14.20
2023-10-17T13:50:27.334Z,14.30
2023-10-17T13:52:55.220Z,14.30
2023-10-17T13:55:26.852Z,14.30
2023-10-17T13:57:56.745Z,14.30
2023-10-17T14:00:25.138Z,14.20
2023-10-17T14:02:51.993Z,14.10
2023-10-17T14:05:21.201Z,14.00
2023-10-17T14:07:49.983Z,13.90
2023-10-17T14:10:17.497Z,13.90
2023-10-17T14:12:47.522Z,13.90
2023-10-17T14:15:15.337Z,13.70
2023-10-17T14:17:46.691Z,13.60
2023-10-17T14:20:29.379Z,13.50
2023-10-17T14:23:14.260Z,13.40
2023-10-17T14:26:01.413Z,13.30
2023-10-17T14:28:28.093Z,13.10
2023-10-17T14:30:55.428Z,13.10
2023-10-17T14:33:23.033Z,13.00
2023-10-17T14:35:50.739Z,12.90
2023-10-17T14:38:18.150Z,12.90
2023-10-17T14:40:45.378Z,12.90
2023-10-17T14:43:16.221Z,12.90
2023-10-17T14:45:43.446Z,12.90
2023-10-17T14:48:12.850Z,12.90
2023-10-17T14:50:40.444Z,12.90
2023-10-17T14:53:08.030Z,12.80
2023-10-17T14:55:35.190Z,12.80
2023-10-17T14:58:03.514Z,12.90
2023-10-17T15:00:30.328Z,12.80
2023-10-17T15:03:00.682Z,12.80
2023-10-17T15:05:27.472Z,12.70
2023-10-17T15:07:55.948Z,12.70
2023-10-17T15:10:24.113Z,12.60
2023-10-17T15:12:54.064Z,12.50
2023-10-17T15:15:20.978Z,12.40
2023-10-17T15:17:51.547Z,12.40
2023-10-17T15:20:18.459Z,12.30
2023-10-17T15:22:46.109Z,12.30
2023-10-17T15:25:14.243Z,12.30
2023-10-17T15:27:45.257Z,12.30
2023-10-17T15:30:30.298Z,12.20
2023-10-17T15:33:04.285Z,12.10
2023-10-17T15:35:32.154Z,12.00
2023-10-17T15:37:59.365Z,12.00
2023-10-17T15:40:27.154Z,11.90
2023-10-17T15:42:54.267Z,11.80
2023-10-17T15:45:22.098Z,11.80
2023-10-17T15:47:52.744Z,11.70
2023-10-17T15:50:20.524Z,11.70
2023-10-17T15:52:51.059Z,11.60
2023-10-17T15:55:19.311Z,11.50
2023-10-17T15:57:46.529Z,11.50
2023-10-17T16:00:17.542Z,11.40
2023-10-17T16:02:47.307Z,11.40
2023-10-17T16:05:15.501Z,11.40
2023-10-17T16:07:43.561Z,11.30
2023-10-17T16:10:14.617Z,11.30
2023-10-17T16:12:42.393Z,11.20
2023-10-17T16:15:10.920Z,11.20
2023-10-17T16:17:38.832Z,11.10
2023-10-17T16:20:18.924Z,11.10
2023-10-17T16:22:45.682Z,11.00
2023-10-17T16:25:14.869Z,10.80
2023-10-17T16:27:41.826Z,10.80
2023-10-17T16:30:14.377Z,10.70
2023-10-17T16:32:41.279Z,10.60
2023-10-17T16:35:08.894Z,10.60
2023-10-17T16:37:37.922Z,10.50
2023-10-17T16:40:06.130Z,10.50
2023-10-17T16:42:33.444Z,10.40
2023-10-17T16:45:01.009Z,10.40
2023-10-17T16:47:27.873Z,10.30
2023-10-17T16:49:57.325Z,10.30
2023-10-17T16:52:24.501Z,10.20
2023-10-17T16:54:51.860Z,10.20
2023-10-17T16:57:18.572Z,10.10
2023-10-17T16:59:47.655Z,10.10
2023-10-17T17:02:15.263Z,10.00
2023-10-17T17:04:42.421Z,9.90
2023-10-17T17:07:11.095Z,9.80
2023-10-17T17:09:38.020Z,9.80
2023-10-17T17:12:06.690Z,9.80
2023-10-17T17:14:33.531Z,9.70
2023-10-17T17:17:00.940Z,9.70
2023-10-17T17:19:29.775Z,9.70
2023-10-17T17:21:57.981Z,9.70
2023-10-17T17:24:24.743Z,9.80
2023-10-17T17:26:57.669Z,9.70
2023-10-17T17:29:25.708Z,9.70
2023-10-17T17:31:52.930Z,9.70
2023-10-17T17:34:22.704Z,9.70
2023-10-17T17:36:51.802Z,9.70
2023-10-17T17:39:25.657Z,9.70
2023-10-17T17:41:53.292Z,9.60
2023-10-17T17:44:20.128Z,9.60
2023-10-17T17:46:48.615Z,9.50
2023-10-17T17:49:15.894Z,9.50
2023-10-17T17:51:43.282Z,9.40
2023-10-17T17:54:10.259Z,9.40
2023-10-17T17:56:39.185Z,9.40
2023-10-17T17:59:05.928Z,9.30
2023-10-17T18:01:34.053Z,9.30
2023-10-17T18:04:19.051Z,9.20
2023-10-17T18:06:50.221Z,9.20
2023-10-17T18:09:19.746Z,9.10
2023-10-17T18:11:47.876Z,9.10
2023-10-17T18:14:16.101Z,9.10
2023-10-17T18:16:43.429Z,9.00
2023-10-17T18:19:10.397Z,8.90
2023-10-17T18:21:38.150Z,8.80
2023-10-17T18:24:07.125Z,8.80
2023-10-17T18:26:37.077Z,8.70
2023-10-17T18:29:05.415Z,8.70
2023-10-17T18:31:33.001Z,8.70
2023-10-17T18:33:59.803Z,8.60
2023-10-17T18:36:29.414Z,8.50
2023-10-17T18:39:03.183Z,8.50
2023-10-17T18:41:41.889Z,8.40
2023-10-17T18:44:09.951Z,8.40
2023-10-17T18:46:37.821Z,8.40
2023-10-17T18:49:04.928Z,8.30
2023-10-17T18:51:34.684Z,8.30
2023-10-17T18:54:02.636Z,8.30
2023-10-17T18:56:30.179Z,8.20
2023-10-17T18:58:57.724Z,8.30
2023-10-17T19:01:25.055Z,8.20
2023-10-17T19:03:54.852Z,8.20
2023-10-17T19:06:22.046Z,8.20
2023-10-17T19:08:49.502Z,8.10
2023-10-17T19:11:16.288Z,8.00
2023-10-17T19:13:43.640Z,8.00
2023-10-17T19:16:11.878Z,7.90
2023-10-17T19:18:41.919Z,7.90
2023-10-17T19:21:12.392Z,7.90
2023-10-17T19:23:42.655Z,7.80
2023-10-17T19:26:12.681Z,7.80
2023-10-17T19:28:41.686Z,7.70
2023-10-17T19:31:09.875Z,7.60
2023-10-17T19:33:37.639Z,7.60
2023-10-17T19:36:05.419Z,7.50
2023-10-17T19:38:32.770Z,7.50
2023-10-17T19:40:59.695Z,7.40
2023-10-17T19:43:27.512Z,7.40
2023-10-17T19:45:57.305Z,7.40
2023-10-17T19:48:25.005Z,7.40
2023-10-17T19:50:52.573Z,7.30
2023-10-17T19:53:20.016Z,7.30
2023-10-17T19:55:47.327Z,7.30
2023-10-17T19:58:15.705Z,7.20
2023-10-17T20:00:42.693Z,7.20
2023-10-17T20:03:13.395Z,7.10
2023-10-17T20:05:44.504Z,7.10
2023-10-17T20:08:12.688Z,7.10
2023-10-17T20:10:39.794Z,7.10
2023-10-17T20:13:07.583Z,7.00
2023-10-17T20:15:36.576Z,7.00
2023-10-17T20:18:06.278Z,7.00
2023-10-17T20:20:33.371Z,6.90
2023-10-17T20:23:01.039Z,6.90
2023-10-17T20:25:27.947Z,6.90
2023-10-17T20:27:55.602Z,6.90
2023-10-17T20:30:24.745Z,6.90
2023-10-17T20:32:53.258Z,6.90
2023-10-17T20:35:20.501Z,6.90
2023-10-17T20:37:47.731Z,7.00
2023-10-17T20:40:21.957Z,6.90
2023-10-17T20:42:49.744Z,6.90
2023-10-17T20:45:17.903Z,6.80
2023-10-17T20:47:44.924Z,6.90
2023-10-17T20:50:12.250Z,6.80
2023-10-17T20:52:39.077Z,6.80
2023-10-17T20:55:07.303Z,6.80
2023-10-17T20:57:34.678Z,6.70
2023-10-17T21:00:03.433Z,6.70
2023-10-17T21:02:31.135Z,6.70
2023-10-17T21:04:58.629Z,6.70
2023-10-17T21:07:25.327Z,6.70
2023-10-17T21:09:52.972Z,6.60
2023-10-17T21:12:19.732Z,6.70
2023-10-17T21:14:51.052Z,6.60
2023-10-17T21:17:18.448Z,6.60
2023-10-17T21:19:45.748Z,6.60
2023-10-17T21:22:12.679Z,6.60
2023-10-17T21:24:40.067Z,6.60
2023-10-17T21:27:06.853Z,6.60
2023-10-17T21:29:34.373Z,6.50
2023-10-17T21:32:01.174Z,6.50
2023-10-17T21:34:29.512Z,6.50
2023-10-17T21:36:56.643Z,6.50
2023-10-17T21:39:24.776Z,6.40
2023-10-17T21:41:51.426Z,6.40
2023-10-17T21:44:18.827Z,6.40
2023-10-17T21:46:45.844Z,6.40
2023-10-17T21:49:13.617Z,6.30
2023-10-17T21:51:41.576Z,6.30
2023-10-17T21:54:17.749Z,6.20
2023-10-17T21:56:52.380Z,6.20
2023-10-17T21:59:23.262Z,6.20
2023-10-17T22:01:55.974Z,6.20
2023-10-17T22:04:23.412Z,6.10
2023-10-17T22:06:50.865Z,6.10
2023-10-17T22:09:20.572Z,6.10
2023-10-17T22:11:48.201Z,6.10
2023-10-17T22:14:14.963Z,6.10
2023-10-17T22:16:42.745Z,6.10
2023-10-17T22:19:09.682Z,6.10
2023-10-17T22:21:37.186Z,6.00
2023-10-17T22:24:06.164Z,6.00
2023-10-17T22:27:00.170Z,5.90
2023-10-17T22:29:29.168Z,6.00
2023-10-17T22:32:41.243Z,6.00
2023-10-17T22:35:19.515Z,5.90
2023-10-17T22:37:46.540Z,5.90
2023-10-17T22:40:14.600Z,5.90
2023-10-17T22:42:50.078Z,5.90
2023-10-17T22:45:18.738Z,5.80
2023-10-17T22:47:46.732Z,5.80
2023-10-17T22:50:14.590Z,5.80
2023-10-17T22:55:40.900Z,5.80
2023-10-17T22:58:08.358Z,5.70
2023-10-17T23:00:38.214Z,5.70
2023-10-17T23:03:06.521Z,5.70
2023-10-17T23:05:34.672Z,5.70
2023-10-17T23:08:01.946Z,5.60
2023-10-17T23:10:29.878Z,5.60
2023-10-17T23:13:01.026Z,5.50
2023-10-17T23:15:27.943Z,5.50
2023-10-17T23:17:56.125Z,5.50
2023-10-17T23:20:24.276Z,5.40
2023-10-17T23:23:01.958Z,5.40
2023-10-17T23:25:33.607Z,5.40
2023-10-17T23:28:01.159Z,5.40
2023-10-17T23:30:27.944Z,5.30
2023-10-17T23:32:56.748Z,5.30
2023-10-17T23:35:23.431Z,5.20
2023-10-17T23:37:51.878Z,5.30
2023-10-17T23:40:19.127Z,5.30
2023-10-17T23:42:48.043Z,5.20
2023-10-17T23:45:19.136Z,5.20
2023-10-17T23:47:48.327Z,5.20
2023-10-17T23:50:19.980Z,5.20
2023-10-17T23:52:48.272Z,5.20
2023-10-17T23:55:15.352Z,5.20
2023-10-17T23:57:48.526Z,5.20
